Ruby Airport Ruby US
ICAO: PARY
IATA:
Category: Medium
Scheduled Services:

Elevation: 658 ft
TransAlt. 18000 ft.

Airport Communications:
ASOS:119.925
ANCHORAGE CNTR:127
CTAF:122.8
FAIRBANKS RDO:122.2

PARY Zoom In..

Runways:

(A) RW 03 length 4000 ft width 100 ft
---- / hdg 31

(B) RW 21 length 4000 ft width 100 ft
---- / hdg 211

Location; PARY
Day. 29 / Time. 23.56 Zulu
* Altimeter: 30.29
* Temperature: -06° c. -21.2°f.
* Wind from: 080° Speed 09 kn with Gusts up to 14 kn.
Dewpoint: -20° c.
Visibility: 10 Statute Miles.
Clouds: Clear (automated report).

PARY 292356Z AUTO 08009G14KT 10SM CLR M06/M20 A3029 RMK AO2 SLP278 T10611200 11061 21128 56008 FZRANO


Wind From 080°
Speed 09 kn.

 
 
jpsmedia worldairports.se 2020   terms of use